Time;durP1;ratioP1;P1;durP2;ratioP2;P2;SDS_P1;SDS_P2;PMS_P1;PMS_P2;Temp;Humidity;BMP_temperature;BMP_pressure;BME280_temperature;BME280_humidity;BME280_pressure;Samples;Min_cycle;Max_cycle;Signal;HPM_P1;HPM_P2
2023/10/11 00:05:47;;;;;;;10.30;4.22;;;;;;;21.74;100.00;101266.41;20978963;28;20052;-70
2023/10/11 00:16:13;;;;;;;14.23;4.10;;;;;;;21.69;100.00;101254.88;20938371;28;20103;-70
2023/10/11 00:26:40;;;;;;;11.07;3.83;;;;;;;21.61;100.00;101260.41;20980660;28;20052;-71
2023/10/11 00:37:05;;;;;;;16.95;4.43;;;;;;;21.57;100.00;101252.44;20911363;28;20114;-71
2023/10/11 00:47:29;;;;;;;17.02;4.78;;;;;;;21.54;100.00;101239.06;20972345;28;20226;-70
2023/10/11 00:57:53;;;;;;;15.20;4.25;;;;;;;21.50;100.00;101242.75;20976139;28;20508;-71
2023/10/11 01:08:18;;;;;;;15.00;4.53;;;;;;;21.45;100.00;101216.88;20964068;28;20053;-71
2023/10/11 01:18:42;;;;;;;15.25;4.20;;;;;;;21.47;100.00;101223.09;21007679;28;20080;-70
2023/10/11 01:29:07;;;;;;;14.10;4.85;;;;;;;21.46;100.00;101218.63;21000397;28;20447;-71
2023/10/11 01:39:32;;;;;;;16.55;4.30;;;;;;;21.42;100.00;101197.25;20994981;28;20721;-71
2023/10/11 01:49:58;;;;;;;15.23;4.65;;;;;;;21.37;100.00;101194.66;20981765;28;20075;-71
2023/10/11 02:00:24;;;;;;;12.20;4.07;;;;;;;21.33;100.00;101206.38;20982765;28;20049;-71
2023/10/11 02:10:49;;;;;;;12.68;4.00;;;;;;;21.31;100.00;101192.13;20972261;28;20044;-71
2023/10/11 02:21:12;;;;;;;14.85;4.40;;;;;;;21.26;100.00;101198.50;20974351;28;20538;-71
2023/10/11 02:31:38;;;;;;;18.08;4.78;;;;;;;21.24;100.00;101195.84;21002140;28;20045;-71
2023/10/11 02:42:01;;;;;;;15.05;4.60;;;;;;;21.26;100.00;101201.19;20917647;28;20052;-71
2023/10/11 02:52:35;;;;;;;14.18;4.40;;;;;;;21.21;100.00;101206.63;20965470;28;20425;-71
2023/10/11 03:02:58;;;;;;;11.70;4.45;;;;;;;21.25;100.00;101205.69;20965968;28;20060;-70
2023/10/11 03:13:29;;;;;;;14.77;4.22;;;;;;;21.23;100.00;101220.03;20978776;28;20563;-71
2023/10/11 03:33:22;;;;;;;17.35;5.05;;;;;;;21.13;100.00;101213.97;21047747;27;20406;-70
2023/10/11 03:43:45;;;;;;;15.23;5.10;;;;;;;21.14;100.00;101220.19;21004889;28;20044;-70
2023/10/11 03:54:13;;;;;;;17.20;5.10;;;;;;;21.12;100.00;101216.69;20997381;28;20060;-69
2023/10/11 04:04:36;;;;;;;14.83;5.47;;;;;;;21.07;100.00;101219.44;20960207;28;20147;-70
2023/10/11 04:15:13;;;;;;;12.82;3.70;;;;;;;21.15;100.00;101222.84;20965223;28;20059;-69
2023/10/11 04:25:37;;;;;;;15.48;4.15;;;;;;;21.29;100.00;101220.81;20929823;28;20049;-69
2023/10/11 04:36:02;;;;;;;16.02;4.40;;;;;;;21.45;100.00;101199.88;20998887;28;20106;-69
2023/10/11 04:46:30;;;;;;;10.10;3.47;;;;;;;21.44;100.00;101206.16;20968295;28;20056;-69
2023/10/11 04:56:56;;;;;;;10.10;3.17;;;;;;;21.54;100.00;101214.88;20944903;28;20041;-70
2023/10/11 05:07:21;;;;;;;13.15;3.53;;;;;;;21.75;100.00;101230.53;20889865;28;20053;-70
2023/10/11 05:17:50;;;;;;;14.23;3.85;;;;;;;21.78;100.00;101225.09;20924089;28;20075;-71
2023/10/11 05:28:38;;;;;;;13.32;4.18;;;;;;;21.86;100.00;101236.53;20883043;28;20477;-70
2023/10/11 06:00:26;;;;;;;15.38;3.03;;;;;;;22.79;100.00;101283.59;20951737;28;20053;-70
2023/10/11 06:10:48;;;;;;;15.63;3.40;;;;;;;23.31;100.00;101272.28;20887182;28;20061;-70
2023/10/11 06:21:30;;;;;;;12.95;2.72;;;;;;;23.28;100.00;101302.03;20887583;28;20042;-70
2023/10/11 06:31:54;;;;;;;16.48;3.00;;;;;;;23.69;100.00;101306.25;20912635;28;20061;-70
2023/10/11 06:42:23;;;;;;;10.50;2.08;;;;;;;24.17;100.00;101302.97;20899709;28;20509;-71
2023/10/11 06:52:45;;;;;;;12.60;2.65;;;;;;;25.18;100.00;101314.88;20884802;28;20060;-71
2023/10/11 07:03:21;;;;;;;17.20;2.97;;;;;;;25.67;100.00;101313.06;20864275;28;20068;-70
2023/10/11 07:13:54;;;;;;;9.50;2.13;;;;;;;26.18;93.25;101308.34;20913546;28;20048;-70
2023/10/11 07:24:31;;;;;;;14.77;3.03;;;;;;;26.61;91.68;101322.88;20911403;28;20049;-71
2023/10/11 07:34:54;;;;;;;;;;;;;;;26.86;78.65;101317.28;20912819;28;20052;-71
2023/10/11 07:45:18;;;;;;;9.35;2.05;;;;;;;27.19;73.94;101331.22;20895353;28;19927;-70
2023/10/11 07:55:45;;;;;;;13.48;2.78;;;;;;;27.28;74.93;101337.13;20907662;28;20056;-71
2023/10/11 08:06:12;;;;;;;13.47;2.63;;;;;;;27.11;79.31;101368.66;20888118;28;20103;-70
2023/10/11 08:16:35;;;;;;;13.63;2.63;;;;;;;27.52;78.67;101369.56;20856264;28;20374;-71
2023/10/11 08:27:06;;;;;;;13.35;2.95;;;;;;;27.04;77.12;101368.03;20855113;28;20050;-71
2023/10/11 08:37:31;;;;;;;12.27;2.40;;;;;;;27.09;73.10;101382.28;20820391;28;20509;-71
2023/10/11 08:47:57;;;;;;;9.93;2.05;;;;;;;27.00;70.28;101387.19;20886880;28;20110;-71
2023/10/11 08:58:27;;;;;;;11.05;2.88;;;;;;;27.14;68.35;101388.38;20908132;28;20077;-71
2023/10/11 09:08:52;;;;;;;14.55;2.20;;;;;;;27.02;61.80;101407.00;20906559;28;20497;-71
2023/10/11 09:19:19;;;;;;;12.05;1.92;;;;;;;27.33;56.93;101385.75;20918619;28;20139;-71
2023/10/11 09:29:44;;;;;;;11.70;2.17;;;;;;;27.93;56.30;101416.53;20890303;28;20057;-71
2023/10/11 09:40:15;;;;;;;14.98;2.13;;;;;;;28.57;48.68;101417.13;20919254;28;20110;-71
2023/10/11 09:50:41;;;;;;;17.77;2.05;;;;;;;29.02;45.15;101411.25;20903935;28;20048;-70
2023/10/11 10:01:10;;;;;;;15.83;1.83;;;;;;;29.05;44.49;101411.13;20924743;28;20045;-71
2023/10/11 10:12:20;;;;;;;9.77;2.15;;;;;;;28.68;43.83;101405.72;20921116;28;20059;-71
2023/10/11 10:22:42;;;;;;;16.58;2.75;;;;;;;28.63;44.45;101397.78;20874657;28;20091;-71
2023/10/11 10:33:21;;;;;;;13.18;2.53;;;;;;;28.51;45.29;101402.00;20862931;28;20060;-71
2023/10/11 10:43:44;;;;;;;9.48;2.25;;;;;;;28.22;46.01;101397.09;20883057;28;20374;-71
2023/10/11 10:54:14;;;;;;;9.30;2.45;;;;;;;28.18;46.34;101389.16;20891264;28;20056;-70
2023/10/11 11:04:36;;;;;;;9.27;2.30;;;;;;;28.29;47.43;101384.94;20887256;28;20064;-71
2023/10/11 11:15:00;;;;;;;10.38;2.15;;;;;;;27.76;48.12;101387.47;20898422;28;20048;-70
2023/10/11 11:25:30;;;;;;;11.05;2.40;;;;;;;27.43;50.08;101388.94;20891230;28;20130;-70
2023/10/11 11:35:55;;;;;;;10.80;2.38;;;;;;;27.25;50.41;101386.06;20863795;28;20397;-71
2023/10/11 11:46:17;;;;;;;10.52;2.60;;;;;;;27.24;49.72;101378.88;20926951;28;20049;-70
2023/10/11 11:56:43;;;;;;;11.50;2.60;;;;;;;27.22;50.69;101379.91;20926832;28;20040;-70
2023/10/11 12:07:09;;;;;;;12.05;2.97;;;;;;;26.66;51.69;101390.38;20913281;28;20051;-71
2023/10/11 12:17:33;;;;;;;12.38;2.58;;;;;;;26.40;53.34;101375.19;20892628;28;20040;-71
2023/10/11 12:27:55;;;;;;;11.63;2.78;;;;;;;26.10;55.01;101388.97;20942200;28;20053;-70
2023/10/11 12:38:20;;;;;;;16.58;2.70;;;;;;;26.03;56.58;101381.16;20937214;28;20127;-70
2023/10/11 12:48:45;;;;;;;16.43;2.90;;;;;;;25.60;58.45;101382.75;20904492;28;20081;-69
2023/10/11 12:59:12;;;;;;;10.18;2.53;;;;;;;25.49;60.44;101392.16;20949323;28;20079;-70
2023/10/11 13:09:36;;;;;;;12.93;2.87;;;;;;;25.49;61.16;101389.47;20916615;28;20045;-71
2023/10/11 13:20:08;;;;;;;13.20;2.90;;;;;;;25.67;62.60;101392.41;20947950;28;20488;-71
2023/10/11 13:30:36;;;;;;;17.55;2.78;;;;;;;25.53;63.12;101391.13;20900449;28;20059;-70
2023/10/11 13:41:00;;;;;;;14.85;3.15;;;;;;;25.54;63.43;101387.47;20952144;28;20053;-71
2023/10/11 13:51:26;;;;;;;12.75;2.55;;;;;;;25.45;62.55;101380.59;20931593;28;20049;-71
2023/10/11 14:01:59;;;;;;;9.75;2.50;;;;;;;25.23;62.48;101385.88;20906397;28;20053;-71
2023/10/11 14:12:27;;;;;;;12.77;3.08;;;;;;;24.92;63.63;101386.03;20919478;28;20048;-71
2023/10/11 14:22:54;;;;;;;8.53;2.50;;;;;;;24.78;65.16;101385.59;20884552;28;20051;-70
2023/10/11 14:33:18;;;;;;;11.60;3.47;;;;;;;24.76;66.16;101378.44;20895237;28;20388;-71
2023/10/11 14:43:42;;;;;;;10.02;2.33;;;;;;;24.66;64.14;101393.22;20914627;28;20044;-72
2023/10/11 14:54:04;;;;;;;8.20;2.10;;;;;;;24.20;58.46;101391.97;20962552;28;20041;-71
2023/10/11 15:04:29;;;;;;;9.00;2.25;;;;;;;23.83;54.36;101406.50;20902635;28;20052;-71
2023/10/11 15:14:51;;;;;;;8.45;2.45;;;;;;;23.61;54.64;101410.75;20865823;28;20044;-70
2023/10/11 15:25:16;;;;;;;9.98;2.53;;;;;;;23.34;53.85;101408.75;20933433;28;20571;-70
2023/10/11 15:35:38;;;;;;;9.02;2.10;;;;;;;23.08;56.63;101414.81;20931061;28;20132;-71
2023/10/11 15:46:03;;;;;;;10.60;2.60;;;;;;;22.96;60.42;101412.44;20909973;28;20513;-70
2023/10/11 15:56:26;;;;;;;12.65;2.80;;;;;;;22.74;64.03;101424.66;20911287;28;20079;-70
2023/10/11 16:06:51;;;;;;;13.35;2.50;;;;;;;22.55;65.42;101426.88;20903275;28;20048;-70
2023/10/11 16:17:18;;;;;;;8.75;2.97;;;;;;;22.40;67.01;101413.75;20902428;28;20059;-70
2023/10/11 16:27:43;;;;;;;12.32;2.55;;;;;;;22.26;71.86;101431.09;20876503;28;20049;-71
2023/10/11 16:38:05;;;;;;;17.98;3.38;;;;;;;22.20;75.94;101441.97;20890090;28;20132;-70
2023/10/11 16:48:29;;;;;;;12.18;2.90;;;;;;;22.12;78.25;101454.69;20918610;28;20080;-70
2023/10/11 16:58:52;;;;;;;9.95;2.55;;;;;;;22.04;77.69;101466.56;20902815;28;20485;-70
2023/10/11 17:09:19;;;;;;;10.82;2.60;;;;;;;21.93;77.34;101466.72;20959385;28;20049;-70
2023/10/11 17:19:41;;;;;;;10.95;2.85;;;;;;;21.79;76.90;101476.88;20904681;28;20495;-70
2023/10/11 17:30:11;;;;;;;9.57;2.53;;;;;;;21.71;75.93;101473.44;20910204;28;20106;-70
2023/10/11 17:40:37;;;;;;;9.27;2.10;;;;;;;21.63;76.11;101478.06;20912679;28;20086;-70
2023/10/11 17:51:05;;;;;;;10.43;2.13;;;;;;;21.52;78.28;101482.75;20911021;28;20118;-70
2023/10/11 18:01:27;;;;;;;9.70;2.28;;;;;;;21.44;78.79;101483.78;20889841;28;20051;-70
2023/10/11 18:18:52;;;;;;;9.38;2.42;;;;;;;21.33;80.27;101482.19;20949889;27;20438;-70
2023/10/11 18:29:16;;;;;;;12.55;2.75;;;;;;;21.28;84.27;101471.50;20946627;28;20080;-70
2023/10/11 18:39:40;;;;;;;9.57;2.20;;;;;;;21.24;87.48;101485.91;20975342;28;20059;-70
2023/10/11 18:50:04;;;;;;;8.70;2.45;;;;;;;21.18;90.63;101498.56;20950345;28;20048;-70
2023/10/11 19:00:32;;;;;;;9.88;2.13;;;;;;;21.08;90.84;101497.78;20969206;28;20126;-70
2023/10/11 19:10:55;;;;;;;12.07;4.85;;;;;;;21.04;90.82;101510.38;20983778;28;20087;-71
2023/10/11 19:21:20;;;;;;;9.23;2.30;;;;;;;21.00;92.21;101518.50;21027918;28;20056;-70
2023/10/11 19:31:43;;;;;;;11.40;2.20;;;;;;;20.92;93.91;101515.94;20964620;28;20492;-70
2023/10/11 19:42:08;;;;;;;9.88;2.50;;;;;;;21.04;95.53;101509.47;20991502;28;20107;-70
2023/10/11 19:52:31;;;;;;;11.25;2.33;;;;;;;21.08;96.87;101521.94;20976136;28;20040;-70
2023/10/11 20:02:56;;;;;;;14.18;2.58;;;;;;;20.96;98.67;101519.44;21006096;28;20040;-70
2023/10/11 20:13:18;;;;;;;11.38;2.78;;;;;;;20.94;97.85;101516.78;20981218;28;20419;-71
2023/10/11 20:23:42;;;;;;;10.32;2.40;;;;;;;20.87;100.00;101519.59;21010321;28;20041;-70
2023/10/11 20:34:08;;;;;;;12.43;3.00;;;;;;;20.78;100.00;101509.88;20963454;28;20118;-70
2023/10/11 20:44:32;;;;;;;11.48;2.60;;;;;;;20.72;100.00;101509.06;20943371;28;20044;-71
2023/10/11 20:54:55;;;;;;;10.48;2.28;;;;;;;20.67;100.00;101499.31;20950348;28;20086;-70
2023/10/11 21:05:23;;;;;;;11.32;2.35;;;;;;;20.59;100.00;101501.19;20948415;28;20089;-71
2023/10/11 21:15:47;;;;;;;11.87;3.60;;;;;;;20.59;100.00;101498.53;20961835;28;20098;-70
2023/10/11 21:26:14;;;;;;;10.60;2.42;;;;;;;20.53;100.00;101495.03;20936648;28;20044;-71
2023/10/11 21:36:38;;;;;;;17.52;2.92;;;;;;;20.60;100.00;101499.41;20949245;28;20041;-71
2023/10/11 21:47:02;;;;;;;15.18;3.40;;;;;;;20.58;100.00;101491.38;20987864;28;20060;-71
2023/10/11 21:57:25;;;;;;;11.43;2.58;;;;;;;20.49;100.00;101490.59;20969256;28;20055;-71
2023/10/11 22:07:50;;;;;;;10.68;2.40;;;;;;;20.38;100.00;101492.53;21005399;28;20055;-71
2023/10/11 22:18:16;;;;;;;7.88;2.33;;;;;;;20.36;100.00;101492.56;20957687;28;20048;-71
2023/10/11 22:28:40;;;;;;;9.18;2.45;;;;;;;20.36;100.00;101489.88;20961559;28;20637;-71
2023/10/11 22:39:04;;;;;;;11.45;2.67;;;;;;;20.36;100.00;101492.56;20955238;28;20048;-70
2023/10/11 22:49:29;;;;;;;13.35;2.92;;;;;;;20.36;100.00;101488.97;20957235;28;20072;-71
2023/10/11 22:59:53;;;;;;;11.80;3.10;;;;;;;20.32;100.00;101480.06;20964255;28;20073;-70
2023/10/11 23:10:19;;;;;;;14.80;2.38;;;;;;;20.29;100.00;101459.53;20971122;28;20084;-70
2023/10/11 23:20:45;;;;;;;17.55;3.42;;;;;;;20.20;100.00;101461.47;20955080;28;20048;-70
2023/10/11 23:31:15;;;;;;;11.88;2.30;;;;;;;20.25;100.00;101446.19;20954900;28;20056;-71
2023/10/11 23:41:45;;;;;;;13.60;2.90;;;;;;;20.26;100.00;101445.28;20985633;28;20579;-70
2023/10/11 23:52:12;;;;;;;15.52;2.30;;;;;;;20.26;100.00;101434.56;20964830;28;20526;-70
